Time;durP1;ratioP1;P1;durP2;ratioP2;P2;SDS_P1;SDS_P2;PMS_P1;PMS_P2;Temp;Humidity;BMP_temperature;BMP_pressure;BME280_temperature;BME280_humidity;BME280_pressure;Samples;Min_cycle;Max_cycle;Signal;HPM_P1;HPM_P2
2021/08/22 00:01:28;;;;;;;7.45;3.92;;;;;;;17.29;99.07;100329.16;6265293;28;20044;-85
2021/08/22 00:04:28;;;;;;;6.03;4.43;;;;;;;17.27;98.90;100323.19;6266067;28;20033;-84
2021/08/22 00:07:30;;;;;;;6.20;4.80;;;;;;;17.25;97.72;100324.28;6299481;28;20532;-85
2021/08/22 00:10:31;;;;;;;6.60;4.65;;;;;;;17.20;100.00;100318.56;6282583;28;20044;-85
2021/08/22 00:13:32;;;;;;;6.00;4.45;;;;;;;17.18;100.00;100318.69;6266086;28;20048;-83
2021/08/22 00:16:33;;;;;;;5.55;4.28;;;;;;;17.14;99.99;100313.81;6263864;28;20052;-82
2021/08/22 00:19:34;;;;;;;4.70;4.20;;;;;;;17.14;100.00;100319.91;6264707;28;20044;-85
2021/08/22 00:22:35;;;;;;;5.47;4.03;;;;;;;17.08;100.00;100316.00;6264602;28;20407;-83
2021/08/22 00:25:36;;;;;;;6.53;4.18;;;;;;;17.06;100.00;100322.38;6280350;28;20048;-84
2021/08/22 00:28:37;;;;;;;10.27;4.37;;;;;;;17.06;100.00;100310.00;6249419;28;20040;-85
2021/08/22 00:31:37;;;;;;;6.90;4.70;;;;;;;17.04;100.00;100314.56;6282323;28;20070;-83
2021/08/22 00:34:38;;;;;;;6.50;4.47;;;;;;;16.99;100.00;100321.22;6264933;28;20044;-84
2021/08/22 00:37:39;;;;;;;6.93;4.60;;;;;;;16.96;100.00;100316.19;6281767;28;20076;-84
2021/08/22 00:40:40;;;;;;;7.30;4.63;;;;;;;16.95;100.00;100318.00;6264864;28;20487;-84
2021/08/22 00:43:43;;;;;;;6.95;4.75;;;;;;;16.95;100.00;100320.63;6282267;28;20072;-85
2021/08/22 00:46:47;;;;;;;6.50;4.75;;;;;;;16.91;100.00;100316.59;6298217;28;20048;-83
2021/08/22 00:49:47;;;;;;;7.78;5.03;;;;;;;16.89;100.00;100314.06;6279907;28;20040;-83
2021/08/22 00:52:53;;;;;;;10.17;4.80;;;;;;;16.85;100.00;100310.00;6247431;28;20032;-83
2021/08/22 00:55:57;;;;;;;8.00;5.18;;;;;;;16.84;100.00;100318.03;6282508;28;20094;-83
2021/08/22 00:59:03;;;;;;;7.53;4.65;;;;;;;16.80;100.00;100319.22;6248462;28;20040;-83
2021/08/22 01:02:06;;;;;;;6.65;4.32;;;;;;;16.75;100.00;100322.25;6280344;28;20604;-85
2021/08/22 01:05:24;;;;;;;7.22;4.63;;;;;;;16.71;100.00;100326.94;6283642;28;20044;-82
2021/08/22 01:08:41;;;;;;;10.35;4.68;;;;;;;16.63;100.00;100321.44;6298676;28;20094;-84
2021/08/22 01:11:43;;;;;;;8.00;4.60;;;;;;;16.59;100.00;100324.47;6280973;28;20048;-85
2021/08/22 01:14:51;;;;;;;7.18;4.25;;;;;;;16.57;100.00;100321.13;6281240;28;20071;-85
2021/08/22 01:17:54;;;;;;;10.77;4.43;;;;;;;16.49;100.00;100316.47;6297823;28;20495;-83
2021/08/22 01:21:09;;;;;;;7.22;4.63;;;;;;;16.49;100.00;100319.13;6280637;28;20064;-84
2021/08/22 01:24:10;;;;;;;6.35;4.63;;;;;;;16.45;100.00;100318.56;6280212;28;20046;-82
2021/08/22 01:27:12;;;;;;;6.97;4.80;;;;;;;16.45;100.00;100315.06;6278842;28;20063;-82
2021/08/22 01:30:17;;;;;;;7.85;4.75;;;;;;;16.38;100.00;100308.63;6278947;28;20498;-82
2021/08/22 01:33:19;;;;;;;7.10;4.85;;;;;;;16.38;100.00;100313.91;6295304;28;20033;-82
2021/08/22 01:36:21;;;;;;;8.63;4.72;;;;;;;16.38;100.00;100309.47;6295486;28;20652;-85
2021/08/22 01:39:22;;;;;;;6.18;4.43;;;;;;;16.36;100.00;100310.56;6279213;28;20551;-82
2021/08/22 01:42:24;;;;;;;9.63;5.30;;;;;;;16.28;100.00;100311.16;6279808;28;20051;-83
2021/08/22 01:45:26;;;;;;;8.35;5.10;;;;;;;16.26;100.00;100313.09;6294985;28;20110;-82
2021/08/22 01:48:27;;;;;;;;;;;;;;;16.27;100.00;100306.88;6279673;28;20491;-84
2021/08/22 01:51:30;;;;;;;8.20;4.85;;;;;;;16.23;100.00;100311.53;6278478;28;19924;-84
2021/08/22 01:54:31;;;;;;;7.85;4.80;;;;;;;16.21;100.00;100308.19;6279387;28;20047;-83
2021/08/22 01:57:33;;;;;;;7.10;4.85;;;;;;;16.14;100.00;100307.00;6278405;28;20045;-83
2021/08/22 02:00:34;;;;;;;8.75;5.40;;;;;;;16.08;100.00;100305.72;6279194;28;20150;-84
2021/08/22 02:03:41;;;;;;;9.32;5.05;;;;;;;16.04;100.00;100303.44;6295708;28;20052;-83
2021/08/22 02:06:52;;;;;;;6.55;4.72;;;;;;;15.97;100.00;100295.19;6279766;28;20337;-84
2021/08/22 02:10:19;;;;;;;7.70;4.68;;;;;;;15.96;100.00;100305.84;6296895;28;20040;-83
2021/08/22 02:13:22;;;;;;;8.02;5.03;;;;;;;15.96;100.00;100296.19;6276851;28;20056;-85
2021/08/22 02:16:28;;;;;;;9.60;4.97;;;;;;;15.96;100.00;100298.81;6297222;28;20055;-84
2021/08/22 02:19:31;;;;;;;7.90;4.72;;;;;;;15.96;100.00;100301.44;6278695;28;20052;-83
2021/08/22 02:22:34;;;;;;;8.45;5.60;;;;;;;15.95;100.00;100306.81;6278621;28;20058;-84
2021/08/22 02:25:36;;;;;;;7.88;4.95;;;;;;;15.91;100.00;100307.03;6278399;28;20051;-83
2021/08/22 02:28:37;;;;;;;7.95;5.65;;;;;;;15.94;100.00;100303.34;6279563;28;20552;-82
2021/08/22 02:31:37;;;;;;;9.65;5.25;;;;;;;15.91;100.00;100300.94;6262009;28;20044;-84
2021/08/22 02:34:38;;;;;;;10.20;5.50;;;;;;;15.89;100.00;100301.06;6262569;28;20060;-82
2021/08/22 02:37:39;;;;;;;10.55;6.20;;;;;;;15.81;100.00;100290.31;6244623;28;20059;-85
2021/08/22 02:40:39;;;;;;;7.03;5.63;;;;;;;15.80;100.00;100300.97;6279703;28;20045;-84
2021/08/22 02:43:40;;;;;;;8.07;5.70;;;;;;;15.81;100.00;100300.00;6277797;28;20032;-83
2021/08/22 02:46:41;;;;;;;8.70;5.25;;;;;;;15.83;100.00;100301.56;6246025;28;20040;-83
2021/08/22 02:49:42;;;;;;;7.88;5.47;;;;;;;15.81;100.00;100295.56;6260796;28;20402;-82
2021/08/22 02:52:43;;;;;;;6.63;5.38;;;;;;;15.77;100.00;100302.03;6278460;28;20036;-82
2021/08/22 02:55:44;;;;;;;8.32;5.10;;;;;;;15.73;100.00;100299.78;6293777;28;20041;-82
2021/08/22 02:58:44;;;;;;;7.93;5.90;;;;;;;15.68;100.00;100302.75;6261220;28;20052;-84
2021/08/22 03:01:45;;;;;;;8.02;5.53;;;;;;;15.69;100.00;100296.53;6260952;28;20047;-82
2021/08/22 03:04:46;;;;;;;7.60;5.28;;;;;;;15.63;100.00;100299.66;6261569;28;20045;-85
2021/08/22 03:07:47;;;;;;;9.80;5.28;;;;;;;15.58;100.00;100307.03;6261974;28;20040;-83
2021/08/22 03:10:48;;;;;;;8.70;5.20;;;;;;;15.54;100.00;100302.97;6277658;28;20052;-83
2021/08/22 03:13:49;;;;;;;11.88;5.63;;;;;;;15.54;100.00;100297.72;6261361;28;20483;-82
2021/08/22 03:16:50;;;;;;;11.13;6.10;;;;;;;15.48;100.00;100297.25;6276990;28;20534;-83
2021/08/22 03:19:52;;;;;;;8.23;5.43;;;;;;;15.45;100.00;100296.66;6278620;28;20086;-83
2021/08/22 03:22:52;;;;;;;;;;;;;;;15.42;100.00;100296.88;6262222;28;20519;-83
2021/08/22 03:25:53;;;;;;;7.15;5.60;;;;;;;15.41;100.00;100295.22;6296460;28;20019;-84
2021/08/22 03:28:54;;;;;;;7.25;5.70;;;;;;;15.37;100.00;100293.78;6278698;28;20170;-84
2021/08/22 03:31:54;;;;;;;8.43;5.30;;;;;;;15.38;100.00;100303.31;6245480;28;20119;-84
2021/08/22 03:34:57;;;;;;;7.65;5.65;;;;;;;15.38;100.00;100305.94;6262688;28;20462;-82
2021/08/22 03:37:57;;;;;;;9.45;5.45;;;;;;;15.37;100.00;100301.66;6250068;28;20542;-84
2021/08/22 03:40:59;;;;;;;10.48;5.97;;;;;;;15.39;100.00;100307.66;6249506;28;20093;-85
2021/08/22 03:43:59;;;;;;;8.80;5.95;;;;;;;15.38;100.00;100308.59;6265221;28;20126;-84
2021/08/22 03:47:00;;;;;;;9.10;5.82;;;;;;;15.40;100.00;100302.28;6282925;28;20041;-85
2021/08/22 03:50:01;;;;;;;10.60;6.60;;;;;;;15.32;100.00;100312.53;6250037;28;20478;-85
2021/08/22 03:53:02;;;;;;;14.82;6.45;;;;;;;15.27;100.00;100307.63;6283312;28;20045;-84
2021/08/22 03:56:03;;;;;;;7.50;6.03;;;;;;;15.28;100.00;100309.31;6266693;28;20510;-83
2021/08/22 03:59:07;;;;;;;8.65;6.05;;;;;;;15.26;100.00;100313.00;6281245;28;20094;-82
2021/08/22 04:02:08;;;;;;;8.48;5.35;;;;;;;15.32;100.00;100309.91;6266995;28;20036;-84
2021/08/22 04:05:11;;;;;;;12.43;6.10;;;;;;;15.28;100.00;100311.94;6249592;28;20556;-84
2021/08/22 04:08:12;;;;;;;10.73;6.35;;;;;;;15.26;100.00;100307.75;6281952;28;20040;-82
2021/08/22 04:11:13;;;;;;;10.98;6.10;;;;;;;15.26;100.00;100315.63;6233346;28;20053;-84
2021/08/22 04:14:14;;;;;;;12.93;6.50;;;;;;;15.20;100.00;100310.84;6281494;28;20549;-83
2021/08/22 04:17:15;;;;;;;10.77;5.95;;;;;;;15.22;100.00;100312.41;6249148;28;20418;-82
2021/08/22 04:20:16;;;;;;;8.15;6.28;;;;;;;15.26;100.00;100320.91;6298037;28;20037;-83
2021/08/22 04:23:17;;;;;;;11.25;6.95;;;;;;;15.28;100.00;100316.38;6297502;28;20040;-84
2021/08/22 04:26:17;;;;;;;10.15;6.03;;;;;;;15.30;100.00;100325.78;6249142;28;20052;-84
2021/08/22 04:29:19;;;;;;;12.50;6.68;;;;;;;15.37;100.00;100323.53;6281264;28;20041;-82
2021/08/22 04:32:21;;;;;;;10.73;7.55;;;;;;;15.41;100.00;100329.41;6298417;28;20040;-84
2021/08/22 04:35:22;;;;;;;;;;;;;;;15.46;100.00;100329.88;6249902;28;20043;-84
2021/08/22 04:38:23;;;;;;;8.98;6.88;;;;;;;15.49;100.00;100330.47;6282555;28;19920;-84
2021/08/22 04:41:23;;;;;;;13.07;7.43;;;;;;;15.56;100.00;100330.00;6298968;28;20063;-82
2021/08/22 04:44:24;;;;;;;11.05;6.85;;;;;;;15.59;100.00;100325.34;6280723;28;20526;-84
2021/08/22 04:47:25;;;;;;;12.13;7.18;;;;;;;15.62;100.00;100325.09;6265141;28;20051;-84
2021/08/22 04:50:26;;;;;;;10.23;6.93;;;;;;;15.68;100.00;100327.25;6281244;28;20543;-82
2021/08/22 04:53:27;;;;;;;11.45;7.22;;;;;;;15.78;100.00;100329.19;6263896;28;20045;-82
2021/08/22 04:56:28;;;;;;;10.18;6.57;;;;;;;15.84;100.00;100331.34;6247633;28;20052;-82
2021/08/22 04:59:28;;;;;;;9.80;6.68;;;;;;;15.93;100.00;100335.03;6281012;28;20036;-84
2021/08/22 05:02:29;;;;;;;8.02;6.53;;;;;;;16.00;100.00;100339.72;6263975;28;20045;-82
2021/08/22 05:05:30;;;;;;;10.32;7.13;;;;;;;16.10;100.00;100338.03;6262662;28;20055;-82
2021/08/22 05:08:30;;;;;;;12.02;6.90;;;;;;;16.19;100.00;100327.72;6264110;28;20037;-85
2021/08/22 05:11:33;;;;;;;12.05;7.82;;;;;;;16.31;100.00;100327.56;6263377;28;20041;-83
2021/08/22 05:14:35;;;;;;;11.30;7.07;;;;;;;16.45;100.00;100333.50;6279150;28;20399;-82
2021/08/22 05:17:36;;;;;;;10.38;7.20;;;;;;;16.55;100.00;100328.31;6279306;28;20049;-86
2021/08/22 05:20:37;;;;;;;13.25;7.28;;;;;;;16.67;100.00;100335.22;6280801;28;20041;-83
2021/08/22 05:23:37;;;;;;;13.18;6.57;;;;;;;16.77;100.00;100333.50;6278994;28;20036;-83
2021/08/22 05:26:38;;;;;;;9.90;6.63;;;;;;;16.88;100.00;100336.13;6278946;28;20125;-82
2021/08/22 05:29:39;;;;;;;15.55;7.28;;;;;;;16.97;100.00;100337.16;6278889;28;20047;-82
2021/08/22 05:32:40;;;;;;;10.77;6.35;;;;;;;17.03;100.00;100336.66;6278859;28;20047;-83
2021/08/22 05:35:40;;;;;;;11.18;6.88;;;;;;;17.19;100.00;100338.81;6245729;28;20080;-83
2021/08/22 05:38:41;;;;;;;11.18;7.45;;;;;;;17.34;100.00;100339.34;6278761;28;20032;-83
2021/08/22 05:41:42;;;;;;;11.32;6.63;;;;;;;17.44;100.00;100339.38;6280357;28;20471;-84
2021/08/22 05:44:43;;;;;;;11.65;6.57;;;;;;;17.56;100.00;100340.13;6263199;28;20123;-83
2021/08/22 05:47:43;;;;;;;12.75;6.35;;;;;;;17.64;100.00;100330.56;6279019;28;20437;-86
2021/08/22 05:50:44;;;;;;;10.95;6.90;;;;;;;17.79;100.00;100335.50;6279868;28;20090;-84
2021/08/22 05:53:46;;;;;;;14.80;7.43;;;;;;;17.99;100.00;100339.06;6245456;28;20131;-83
2021/08/22 05:56:47;;;;;;;12.10;6.43;;;;;;;18.08;100.00;100330.38;6262872;28;20044;-83
2021/08/22 05:59:48;;;;;;;9.30;6.37;;;;;;;18.17;100.00;100334.00;6245841;28;20545;-86
2021/08/22 06:02:49;;;;;;;11.00;6.55;;;;;;;18.33;100.00;100329.84;6262284;28;20064;-83
2021/08/22 06:05:50;;;;;;;8.77;6.47;;;;;;;18.45;100.00;100334.97;6246598;28;20489;-85
2021/08/22 06:08:51;;;;;;;9.77;6.83;;;;;;;18.56;100.00;100332.22;6295081;28;20048;-83
2021/08/22 06:11:51;;;;;;;11.43;7.40;;;;;;;18.68;100.00;100335.56;6262578;28;20037;-84
2021/08/22 06:14:52;;;;;;;13.87;6.90;;;;;;;18.80;100.00;100331.00;6264087;28;20143;-83
2021/08/22 06:17:53;;;;;;;9.47;6.67;;;;;;;18.95;100.00;100326.13;6263165;28;20068;-83
2021/08/22 06:20:54;;;;;;;10.27;6.60;;;;;;;19.10;100.00;100332.63;6261706;28;20123;-83
2021/08/22 06:23:57;;;;;;;15.10;6.53;;;;;;;19.17;99.76;100328.47;6263094;28;20040;-83
2021/08/22 06:26:58;;;;;;;12.45;6.45;;;;;;;19.34;92.65;100334.81;6263618;28;20102;-86
2021/08/22 06:30:02;;;;;;;12.43;6.10;;;;;;;19.43;94.76;100333.94;6279619;28;20079;-84
2021/08/22 06:33:02;;;;;;;9.35;6.13;;;;;;;19.53;93.29;100326.81;6280464;28;20090;-84
2021/08/22 06:36:04;;;;;;;9.73;6.10;;;;;;;19.64;94.26;100325.81;6262503;28;20052;-83
2021/08/22 06:39:08;;;;;;;13.43;6.40;;;;;;;19.82;93.05;100333.00;6278418;28;20059;-83
2021/08/22 06:42:09;;;;;;;13.15;6.88;;;;;;;19.98;90.24;100335.03;6295466;28;20351;-83
2021/08/22 06:45:10;;;;;;;13.20;6.23;;;;;;;20.10;86.52;100333.84;6261377;28;20127;-83
2021/08/22 06:48:14;;;;;;;12.90;6.30;;;;;;;20.19;88.26;100338.22;6261074;28;20344;-83
2021/08/22 06:51:15;;;;;;;12.63;5.97;;;;;;;20.30;85.23;100337.19;6253341;28;20277;-81
2021/08/22 06:54:16;;;;;;;9.20;6.20;;;;;;;20.45;87.34;100335.69;6286757;28;20105;-82
2021/08/22 06:57:17;;;;;;;8.53;5.73;;;;;;;20.62;85.03;100339.34;6282275;28;20043;-82
2021/08/22 07:00:18;;;;;;;10.65;5.63;;;;;;;20.71;82.32;100341.13;6262760;28;20549;-84
2021/08/22 07:03:19;;;;;;;9.97;5.80;;;;;;;20.89;81.86;100353.50;6262323;28;20119;-83
2021/08/22 07:06:19;;;;;;;9.10;5.53;;;;;;;20.98;82.07;100347.31;6287468;28;20040;-87
2021/08/22 07:09:20;;;;;;;11.17;5.53;;;;;;;21.09;81.83;100344.38;6280734;28;20040;-84
2021/08/22 07:12:21;;;;;;;9.83;5.60;;;;;;;21.26;79.39;100350.63;6266104;28;20499;-84
2021/08/22 07:15:22;;;;;;;9.65;5.47;;;;;;;21.51;77.37;100349.00;6282062;28;20300;-83
2021/08/22 07:18:23;;;;;;;16.73;5.27;;;;;;;21.69;74.49;100348.09;6283492;28;20056;-82
2021/08/22 07:21:24;;;;;;;16.83;5.37;;;;;;;21.90;76.21;100353.81;6296701;28;20479;-84
2021/08/22 07:24:24;;;;;;;14.63;5.70;;;;;;;22.17;73.46;100351.94;6267157;28;20044;-83
2021/08/22 07:27:26;;;;;;;16.23;5.67;;;;;;;22.23;70.29;100351.31;6250731;28;20047;-83
2021/08/22 07:30:27;;;;;;;;;;;;;;;22.42;72.20;100355.50;6284278;28;20074;-83
2021/08/22 07:33:27;;;;;;;12.30;5.05;;;;;;;22.58;77.63;100349.38;6283346;28;19924;-85
2021/08/22 07:36:28;;;;;;;7.90;4.50;;;;;;;22.81;67.20;100354.06;6250124;28;20522;-81
2021/08/22 07:39:29;;;;;;;12.40;5.00;;;;;;;22.91;67.06;100355.53;6266567;28;20106;-84
2021/08/22 07:42:30;;;;;;;17.17;4.83;;;;;;;23.06;66.40;100346.91;6266673;28;20477;-83
2021/08/22 07:45:31;;;;;;;8.63;4.80;;;;;;;23.24;66.47;100347.56;6266503;28;20041;-83
2021/08/22 07:48:31;;;;;;;15.03;5.03;;;;;;;23.44;66.11;100355.19;6299338;28;20082;-81
2021/08/22 07:51:32;;;;;;;12.97;5.33;;;;;;;23.52;64.62;100350.69;6264981;28;20089;-81
2021/08/22 07:54:33;;;;;;;7.97;4.70;;;;;;;23.67;65.18;100355.28;6248881;28;20064;-85
2021/08/22 07:57:34;;;;;;;9.47;5.03;;;;;;;23.90;65.36;100352.72;6276208;28;20097;-85
2021/08/22 08:00:35;;;;;;;7.40;4.53;;;;;;;24.08;61.68;100355.16;6288908;28;20123;-81
2021/08/22 08:03:35;;;;;;;9.07;4.38;;;;;;;24.28;59.21;100347.56;6307407;28;20413;-82
2021/08/22 08:06:36;;;;;;;6.97;4.90;;;;;;;24.34;59.16;100342.34;6290661;28;20117;-84
2021/08/22 08:09:37;;;;;;;10.18;4.20;;;;;;;24.48;57.82;100343.44;6324432;28;20474;-84
2021/08/22 08:12:38;;;;;;;13.57;4.50;;;;;;;24.65;55.74;100344.16;6286802;28;20040;-81
2021/08/22 08:15:39;;;;;;;10.00;4.20;;;;;;;24.84;54.59;100342.03;6311859;28;20119;-80
2021/08/22 08:18:40;;;;;;;8.02;4.18;;;;;;;24.98;53.07;100345.72;6283915;28;20047;-81
2021/08/22 08:21:40;;;;;;;7.97;4.53;;;;;;;25.08;55.92;100333.81;6288191;28;20410;-82
2021/08/22 08:24:42;;;;;;;10.57;4.67;;;;;;;25.30;58.13;100340.09;6290020;28;20047;-81
2021/08/22 08:27:43;;;;;;;16.95;5.13;;;;;;;25.48;53.65;100338.94;6290379;28;20040;-80
2021/08/22 08:30:44;;;;;;;11.40;4.88;;;;;;;25.67;53.39;100334.88;6273553;28;20062;-83
2021/08/22 08:33:45;;;;;;;10.38;4.03;;;;;;;25.87;52.97;100346.63;6290100;28;20036;-83
2021/08/22 08:36:45;;;;;;;9.00;4.57;;;;;;;25.99;51.49;100338.19;6290094;28;20052;-83
2021/08/22 08:39:46;;;;;;;10.98;4.18;;;;;;;26.13;54.85;100329.31;6324586;28;20062;-83
2021/08/22 08:42:54;;;;;;;8.65;3.83;;;;;;;26.32;50.02;100338.56;6273221;28;20043;-82
2021/08/22 08:46:10;;;;;;;7.22;3.58;;;;;;;26.43;46.95;100334.53;6323954;28;20039;-86
2021/08/22 08:49:28;;;;;;;4.80;3.53;;;;;;;26.53;47.08;100337.72;6304904;28;20036;-82
2021/08/22 08:52:59;;;;;;;9.45;3.83;;;;;;;26.59;47.73;100339.69;6305123;28;20040;-84
2021/08/22 08:56:11;;;;;;;5.27;3.50;;;;;;;26.64;45.89;100331.06;6305557;28;20535;-84
2021/08/22 08:59:12;;;;;;;9.35;3.63;;;;;;;26.73;47.00;100328.06;6323973;28;20085;-83
2021/08/22 09:02:12;;;;;;;6.30;3.95;;;;;;;26.81;46.61;100336.97;6306131;28;20036;-86
2021/08/22 09:05:40;;;;;;;6.53;3.70;;;;;;;26.87;46.55;100337.06;6306087;28;20453;-82
2021/08/22 09:09:05;;;;;;;7.18;3.45;;;;;;;27.00;45.09;100325.63;6281363;28;20060;-81
2021/08/22 09:12:38;;;;;;;6.90;3.38;;;;;;;27.07;49.35;100328.31;6305728;28;20079;-87
2021/08/22 09:16:16;;;;;;;9.73;3.30;;;;;;;27.04;45.04;100326.88;6262055;28;20052;-90
2021/08/22 09:19:34;;;;;;;5.53;3.17;;;;;;;27.34;44.48;100334.72;6322305;28;20368;-87
2021/08/22 09:23:13;;;;;;;8.48;3.90;;;;;;;27.62;42.24;100326.63;6322522;28;20047;-81
2021/08/22 09:26:14;;;;;;;9.02;3.60;;;;;;;27.56;42.64;100316.72;6298784;28;20097;-85
2021/08/22 09:29:40;;;;;;;7.00;3.67;;;;;;;27.99;44.26;100326.41;6317824;28;20119;-86
2021/08/22 09:33:18;;;;;;;4.47;2.90;;;;;;;28.20;43.96;100322.75;6286931;28;20055;-87
2021/08/22 09:36:25;;;;;;;4.55;3.13;;;;;;;27.73;44.66;100326.06;6319597;28;20052;-86
2021/08/22 09:39:38;;;;;;;7.03;3.17;;;;;;;28.04;40.73;100319.41;6303093;28;20050;-81
2021/08/22 09:43:16;;;;;;;4.35;3.03;;;;;;;28.20;41.36;100312.03;6320977;28;20044;-79
2021/08/22 09:46:48;;;;;;;7.03;3.10;;;;;;;27.80;41.94;100317.22;6294565;28;20052;-82
2021/08/22 09:50:10;;;;;;;3.63;2.90;;;;;;;28.25;40.04;100317.59;6321275;28;20486;-87
2021/08/22 09:54:05;;;;;;;6.82;2.85;;;;;;;28.47;41.25;100318.25;6302920;28;20036;-80
2021/08/22 09:57:25;;;;;;;3.40;2.80;;;;;;;28.30;41.70;100323.19;6252500;28;20117;-87
2021/08/22 10:01:02;;;;;;;4.45;2.78;;;;;;;27.92;45.29;100321.88;6319950;28;20119;-80
2021/08/22 10:04:26;;;;;;;3.20;2.83;;;;;;;27.94;42.44;100318.97;6321400;28;20491;-80
2021/08/22 10:07:32;;;;;;;3.33;2.50;;;;;;;27.66;39.76;100308.31;6321097;28;20068;-86
2021/08/22 10:10:42;;;;;;;4.65;2.70;;;;;;;27.25;42.95;100307.28;6302608;28;20051;-84
2021/08/22 10:13:43;;;;;;;4.03;2.33;;;;;;;27.18;40.69;100319.78;6287499;28;20134;-80
2021/08/22 10:16:49;;;;;;;3.88;2.58;;;;;;;26.93;41.20;100305.97;6286219;28;20375;-85
2021/08/22 10:19:50;;;;;;;8.38;3.17;;;;;;;27.07;44.11;100309.59;6302457;28;20044;-82
2021/08/22 10:22:53;;;;;;;6.65;3.20;;;;;;;27.59;42.78;100313.63;6304276;28;20051;-82
2021/08/22 10:25:55;;;;;;;10.10;3.00;;;;;;;27.81;40.27;100308.16;6271538;28;20055;-83
2021/08/22 10:29:00;;;;;;;4.05;2.60;;;;;;;27.99;39.91;100304.97;6286832;28;20047;-85
2021/08/22 10:32:02;;;;;;;12.07;2.90;;;;;;;28.19;39.91;100307.69;6299062;28;20482;-87
2021/08/22 10:35:15;;;;;;;5.63;2.50;;;;;;;27.87;39.38;100312.75;6286586;28;20060;-82
2021/08/22 10:38:24;;;;;;;3.92;2.90;;;;;;;28.09;42.96;100302.72;6318683;28;20070;-86
2021/08/22 10:41:33;;;;;;;4.20;2.85;;;;;;;28.37;41.87;100304.41;6302011;28;20406;-88
2021/08/22 10:44:34;;;;;;;4.65;3.03;;;;;;;28.12;40.61;100299.63;6303056;28;20509;-83
2021/08/22 10:47:35;;;;;;;10.20;2.65;;;;;;;28.24;40.75;100300.69;6319940;28;20040;-82
2021/08/22 10:51:02;;;;;;;4.80;2.40;;;;;;;28.85;39.88;100305.09;6320305;28;20059;-82
2021/08/22 10:54:17;;;;;;;4.55;2.20;;;;;;;29.20;34.52;100296.81;6321982;28;20063;-81
2021/08/22 10:57:48;;;;;;;3.60;2.40;;;;;;;28.37;37.33;100288.31;6309675;28;20469;-86
2021/08/22 11:00:49;;;;;;;8.17;2.57;;;;;;;28.04;39.21;100297.13;6305912;28;20044;-85
2021/08/22 11:04:18;;;;;;;6.63;2.83;;;;;;;28.89;36.10;100290.22;6280283;28;20398;-86
2021/08/22 11:07:24;;;;;;;3.38;2.03;;;;;;;29.00;35.83;100285.25;6304047;28;20046;-85
2021/08/22 11:10:29;;;;;;;5.07;2.60;;;;;;;29.58;37.55;100293.38;6310422;28;20040;-83
2021/08/22 11:13:41;;;;;;;2.88;2.10;;;;;;;29.69;33.44;100281.97;6309586;28;20133;-87
2021/08/22 11:16:45;;;;;;;4.15;2.20;;;;;;;30.04;34.86;100276.25;6292120;28;20044;-81
2021/08/22 11:19:47;;;;;;;5.45;2.47;;;;;;;30.10;32.85;100279.91;6293793;28;20043;-82
2021/08/22 11:22:50;;;;;;;;;;;;;;;30.08;31.16;100276.63;6290013;28;20031;-82
2021/08/22 11:26:11;;;;;;;3.05;2.00;;;;;;;30.04;32.19;100272.72;6307516;28;20015;-88
2021/08/22 11:29:12;;;;;;;;;;;;;;;29.18;34.18;100268.50;6325444;28;20119;-84
2021/08/22 11:32:13;;;;;;;2.77;2.23;;;;;;;28.89;37.09;100265.22;6308146;28;19930;-88
2021/08/22 11:35:16;;;;;;;4.18;2.35;;;;;;;29.19;36.67;100268.28;6323615;28;20545;-83
2021/08/22 11:38:18;;;;;;;3.10;2.33;;;;;;;29.53;34.97;100256.41;6305811;28;20074;-85
2021/08/22 11:41:19;;;;;;;7.45;2.25;;;;;;;29.63;35.22;100268.56;6293281;28;20062;-88
2021/08/22 11:44:23;;;;;;;4.22;2.15;;;;;;;30.03;37.07;100258.44;6290440;28;20042;-82
2021/08/22 11:47:25;;;;;;;4.07;2.33;;;;;;;30.31;32.95;100252.69;6303910;28;20032;-84
2021/08/22 11:50:30;;;;;;;5.30;2.45;;;;;;;30.04;33.59;100252.03;6275897;28;20041;-87
2021/08/22 11:53:32;;;;;;;6.15;2.40;;;;;;;29.83;32.60;100247.78;6309617;28;20046;-89
2021/08/22 11:56:32;;;;;;;7.47;2.63;;;;;;;29.95;33.75;100247.13;6290066;28;20117;-85
2021/08/22 11:59:33;;;;;;;3.70;2.17;;;;;;;30.35;34.81;100253.06;6281522;28;20092;-86
2021/08/22 12:02:34;;;;;;;3.47;2.53;;;;;;;30.67;35.65;100256.53;6312169;28;20074;-83
2021/08/22 12:05:35;;;;;;;4.75;2.22;;;;;;;30.88;33.34;100247.25;6297360;28;20067;-87
2021/08/22 12:08:36;;;;;;;7.82;2.42;;;;;;;30.61;33.42;100243.97;6261648;28;20046;-85
2021/08/22 12:11:37;;;;;;;3.95;2.22;;;;;;;30.71;32.65;100240.78;6319625;28;20082;-87
2021/08/22 12:14:37;;;;;;;3.13;2.42;;;;;;;30.42;33.33;100234.19;6263606;28;20429;-84
2021/08/22 12:17:38;;;;;;;2.63;2.22;;;;;;;29.79;32.89;100233.13;6296542;28;20071;-87
2021/08/22 12:20:40;;;;;;;2.92;2.45;;;;;;;29.21;36.15;100242.03;6276572;28;20040;-84
2021/08/22 12:23:42;;;;;;;3.22;2.28;;;;;;;28.69;34.30;100241.09;6297178;28;20067;-87
2021/08/22 12:26:57;;;;;;;3.30;2.30;;;;;;;28.53;37.40;100232.41;6312533;28;20047;-89
2021/08/22 12:30:11;;;;;;;3.40;2.22;;;;;;;28.96;35.21;100230.31;6328062;28;20042;-88
2021/08/22 12:33:31;;;;;;;5.95;2.50;;;;;;;29.49;34.37;100228.31;6309511;28;20044;-84
2021/08/22 12:36:35;;;;;;;4.65;2.42;;;;;;;29.70;33.63;100211.06;6322924;28;20083;-87
2021/08/22 12:39:37;;;;;;;6.13;2.55;;;;;;;29.37;35.43;100219.25;6307564;28;20429;-82
2021/08/22 12:42:40;;;;;;;4.03;2.30;;;;;;;29.26;34.20;100222.59;6306951;28;20160;-88
2021/08/22 12:45:41;;;;;;;3.35;2.25;;;;;;;29.07;34.14;100210.84;6292967;28;20044;-83
2021/08/22 12:48:43;;;;;;;5.10;2.20;;;;;;;29.26;39.12;100217.22;6289952;28;20540;-83
2021/08/22 12:52:00;;;;;;;4.28;3.40;;;;;;;29.42;37.18;100200.63;6317188;28;20039;-83
2021/08/22 12:55:01;;;;;;;4.53;2.00;;;;;;;29.22;33.99;100210.63;6308114;28;20043;-84
2021/08/22 12:58:02;;;;;;;5.45;2.22;;;;;;;29.11;32.95;100206.72;6312172;28;20123;-83
2021/08/22 13:01:03;;;;;;;4.30;2.47;;;;;;;29.09;34.14;100208.78;6292083;28;20063;-79
2021/08/22 13:04:04;;;;;;;3.83;2.22;;;;;;;29.52;34.24;100200.16;6308832;28;20103;-80
2021/08/22 13:07:04;;;;;;;3.20;2.00;;;;;;;29.66;33.28;100193.69;6277981;28;20043;-82
2021/08/22 13:10:05;;;;;;;10.45;2.42;;;;;;;29.57;33.64;100194.13;6309569;28;20042;-80
2021/08/22 13:13:06;;;;;;;;;;;;;;;29.41;33.21;100195.47;6311475;28;20105;-81
2021/08/22 13:16:08;;;;;;;3.43;2.30;;;;;;;29.33;34.46;100186.59;6307322;28;20358;-80
2021/08/22 13:19:09;;;;;;;3.08;2.00;;;;;;;29.36;36.96;100189.91;6329539;28;20032;-79
2021/08/22 13:22:10;;;;;;;2.65;2.22;;;;;;;29.31;35.73;100193.22;6294705;28;20036;-82
2021/08/22 13:25:11;;;;;;;7.15;2.72;;;;;;;29.16;35.27;100198.03;6276634;28;20119;-86
2021/08/22 13:28:11;;;;;;;2.33;2.10;;;;;;;28.98;33.51;100187.97;6305477;28;20056;-87
2021/08/22 13:31:12;;;;;;;2.58;1.90;;;;;;;28.97;36.50;100189.78;6308980;28;20036;-84
2021/08/22 13:34:13;;;;;;;3.70;2.05;;;;;;;28.81;35.93;100187.59;6295286;28;20046;-84
2021/08/22 13:37:14;;;;;;;6.38;2.20;;;;;;;28.87;38.58;100181.38;6280390;28;20075;-88
2021/08/22 13:40:15;;;;;;;2.22;2.03;;;;;;;29.00;37.50;100185.88;6275501;28;20036;-84
2021/08/22 13:43:16;;;;;;;2.10;1.85;;;;;;;29.18;35.33;100186.06;6278930;28;20084;-82
2021/08/22 13:46:17;;;;;;;3.00;2.03;;;;;;;29.13;33.51;100177.81;6293990;28;20040;-82
2021/08/22 13:49:18;;;;;;;4.35;2.08;;;;;;;29.10;37.07;100172.84;6293896;28;20097;-83
2021/08/22 13:52:19;;;;;;;2.75;2.17;;;;;;;29.15;34.77;100173.03;6309341;28;20047;-82
2021/08/22 13:55:20;;;;;;;2.38;1.90;;;;;;;29.11;34.94;100156.50;6305688;28;20044;-83
2021/08/22 13:58:20;;;;;;;3.92;2.13;;;;;;;28.93;36.22;100169.78;6273967;28;20051;-83
2021/08/22 14:01:21;;;;;;;3.75;2.38;;;;;;;29.05;34.85;100169.94;6293331;28;20120;-83
2021/08/22 14:04:22;;;;;;;4.13;2.08;;;;;;;28.95;35.12;100162.31;6313502;28;20134;-84
2021/08/22 14:11:48;;;;;;;6.30;2.10;;;;;;;28.68;35.06;100158.88;6324932;28;20036;-83
2021/08/22 14:14:49;;;;;;;4.20;2.40;;;;;;;28.60;35.23;100153.75;6312659;28;20051;-83
2021/08/22 14:17:55;;;;;;;9.02;2.30;;;;;;;28.46;36.83;100159.13;6280031;28;20051;-87